sensor_id;sensor_type;location;lat;lon;timestamp;pressure;altitude;pressure_sealevel;temperature;humidity
45541;BME280;31265;49.680;8.608;2023-02-26T00:00:13;100294.03;;;-2.49;100.00
45541;BME280;31265;49.680;8.608;2023-02-26T00:02:42;100312.56;;;-2.48;100.00
45541;BME280;31265;49.680;8.608;2023-02-26T00:05:12;100295.78;;;-2.46;100.00
45541;BME280;31265;49.680;8.608;2023-02-26T00:07:41;100297.09;;;-2.42;100.00
45541;BME280;31265;49.680;8.608;2023-02-26T00:10:12;100300.63;;;-2.35;100.00
45541;BME280;31265;49.680;8.608;2023-02-26T00:12:43;100300.72;;;-2.30;100.00
45541;BME280;31265;49.680;8.608;2023-02-26T00:15:12;100300.56;;;-2.21;100.00
45541;BME280;31265;49.680;8.608;2023-02-26T00:17:44;100298.19;;;-2.13;100.00
45541;BME280;31265;49.680;8.608;2023-02-26T00:20:17;100303.34;;;-2.00;100.00
45541;BME280;31265;49.680;8.608;2023-02-26T00:22:46;100303.59;;;-1.98;100.00
45541;BME280;31265;49.680;8.608;2023-02-26T00:25:14;100301.88;;;-1.96;100.00
45541;BME280;31265;49.680;8.608;2023-02-26T00:27:45;100304.81;;;-1.99;100.00
45541;BME280;31265;49.680;8.608;2023-02-26T00:30:14;100308.84;;;-1.95;100.00
45541;BME280;31265;49.680;8.608;2023-02-26T00:32:45;100308.50;;;-2.02;100.00
45541;BME280;31265;49.680;8.608;2023-02-26T00:35:15;100311.13;;;-2.08;100.00
45541;BME280;31265;49.680;8.608;2023-02-26T00:37:57;100308.69;;;-2.06;100.00
45541;BME280;31265;49.680;8.608;2023-02-26T00:40:34;100312.50;;;-1.98;100.00
45541;BME280;31265;49.680;8.608;2023-02-26T00:43:06;100311.63;;;-1.89;100.00
45541;BME280;31265;49.680;8.608;2023-02-26T00:45:36;100319.22;;;-1.93;100.00
45541;BME280;31265;49.680;8.608;2023-02-26T00:48:32;100306.69;;;-2.05;100.00
45541;BME280;31265;49.680;8.608;2023-02-26T00:51:07;100322.88;;;-2.17;100.00
45541;BME280;31265;49.680;8.608;2023-02-26T00:53:43;100304.19;;;-2.29;100.00
45541;BME280;31265;49.680;8.608;2023-02-26T00:56:14;100320.38;;;-2.35;100.00
45541;BME280;31265;49.680;8.608;2023-02-26T00:58:43;100313.84;;;-2.43;100.00
45541;BME280;31265;49.680;8.608;2023-02-26T01:01:12;100305.81;;;-2.52;100.00
45541;BME280;31265;49.680;8.608;2023-02-26T01:03:41;100315.41;;;-2.57;100.00
45541;BME280;31265;49.680;8.608;2023-02-26T01:06:10;100314.09;;;-2.62;100.00
45541;BME280;31265;49.680;8.608;2023-02-26T01:08:46;100314.09;;;-2.62;100.00
45541;BME280;31265;49.680;8.608;2023-02-26T01:11:17;100318.28;;;-2.46;100.00
45541;BME280;31265;49.680;8.608;2023-02-26T01:13:48;100312.38;;;-2.44;100.00
45541;BME280;31265;49.680;8.608;2023-02-26T01:16:20;100307.75;;;-2.38;100.00
45541;BME280;31265;49.680;8.608;2023-02-26T01:18:55;100313.41;;;-2.42;100.00
45541;BME280;31265;49.680;8.608;2023-02-26T01:21:31;100318.84;;;-2.42;100.00
45541;BME280;31265;49.680;8.608;2023-02-26T01:24:07;100323.97;;;-2.44;100.00
45541;BME280;31265;49.680;8.608;2023-02-26T01:26:37;100325.97;;;-2.44;100.00
45541;BME280;31265;49.680;8.608;2023-02-26T01:29:08;100322.97;;;-2.46;100.00
45541;BME280;31265;49.680;8.608;2023-02-26T01:31:40;100322.69;;;-2.48;100.00
45541;BME280;31265;49.680;8.608;2023-02-26T01:34:14;100323.91;;;-2.49;100.00
45541;BME280;31265;49.680;8.608;2023-02-26T01:36:51;100333.53;;;-2.48;100.00
45541;BME280;31265;49.680;8.608;2023-02-26T01:39:27;100330.66;;;-2.45;100.00
45541;BME280;31265;49.680;8.608;2023-02-26T01:42:00;100322.56;;;-2.39;100.00
45541;BME280;31265;49.680;8.608;2023-02-26T01:44:39;100333.97;;;-2.35;100.00
45541;BME280;31265;49.680;8.608;2023-02-26T01:47:17;100332.78;;;-2.34;100.00
45541;BME280;31265;49.680;8.608;2023-02-26T01:49:47;100328.81;;;-2.33;100.00
45541;BME280;31265;49.680;8.608;2023-02-26T01:55:31;100326.59;;;-2.34;100.00
45541;BME280;31265;49.680;8.608;2023-02-26T01:58:00;100323.09;;;-2.35;100.00
45541;BME280;31265;49.680;8.608;2023-02-26T02:00:30;100322.09;;;-2.38;100.00
45541;BME280;31265;49.680;8.608;2023-02-26T02:02:59;100320.88;;;-2.36;100.00
45541;BME280;31265;49.680;8.608;2023-02-26T02:05:31;100325.81;;;-2.35;100.00
45541;BME280;31265;49.680;8.608;2023-02-26T02:08:00;100331.38;;;-2.29;100.00
45541;BME280;31265;49.680;8.608;2023-02-26T02:10:28;100326.94;;;-2.27;100.00
45541;BME280;31265;49.680;8.608;2023-02-26T02:13:02;100332.38;;;-2.27;100.00
45541;BME280;31265;49.680;8.608;2023-02-26T02:15:40;100333.88;;;-2.26;100.00
45541;BME280;31265;49.680;8.608;2023-02-26T02:18:17;100339.88;;;-2.22;100.00
45541;BME280;31265;49.680;8.608;2023-02-26T02:20:58;100336.59;;;-2.26;100.00
45541;BME280;31265;49.680;8.608;2023-02-26T02:23:36;100344.22;;;-2.30;100.00
45541;BME280;31265;49.680;8.608;2023-02-26T02:26:34;100338.22;;;-2.34;100.00
45541;BME280;31265;49.680;8.608;2023-02-26T02:29:21;100341.09;;;-2.38;100.00
45541;BME280;31265;49.680;8.608;2023-02-26T02:31:57;100342.81;;;-2.40;100.00
45541;BME280;31265;49.680;8.608;2023-02-26T02:34:32;100340.50;;;-2.47;100.00
45541;BME280;31265;49.680;8.608;2023-02-26T02:37:10;100338.03;;;-2.45;100.00
45541;BME280;31265;49.680;8.608;2023-02-26T02:39:45;100344.78;;;-2.41;100.00
45541;BME280;31265;49.680;8.608;2023-02-26T02:42:21;100346.09;;;-2.36;100.00
45541;BME280;31265;49.680;8.608;2023-02-26T02:44:56;100345.81;;;-2.38;100.00
45541;BME280;31265;49.680;8.608;2023-02-26T02:47:30;100351.69;;;-2.25;100.00
45541;BME280;31265;49.680;8.608;2023-02-26T02:50:04;100359.53;;;-2.12;100.00
45541;BME280;31265;49.680;8.608;2023-02-26T02:52:43;100343.16;;;-2.18;100.00
45541;BME280;31265;49.680;8.608;2023-02-26T02:55:17;100353.25;;;-2.18;100.00
45541;BME280;31265;49.680;8.608;2023-02-26T02:57:52;100354.88;;;-2.26;100.00
45541;BME280;31265;49.680;8.608;2023-02-26T03:00:23;100351.81;;;-2.34;100.00
45541;BME280;31265;49.680;8.608;2023-02-26T03:03:01;100362.97;;;-2.47;100.00
45541;BME280;31265;49.680;8.608;2023-02-26T03:05:32;100352.28;;;-2.50;100.00
45541;BME280;31265;49.680;8.608;2023-02-26T03:08:04;100350.22;;;-2.41;100.00
45541;BME280;31265;49.680;8.608;2023-02-26T03:10:33;100349.47;;;-2.41;100.00
45541;BME280;31265;49.680;8.608;2023-02-26T03:13:03;100348.34;;;-2.34;100.00
45541;BME280;31265;49.680;8.608;2023-02-26T03:15:37;100350.47;;;-2.24;100.00
45541;BME280;31265;49.680;8.608;2023-02-26T03:18:17;100357.53;;;-2.32;100.00
45541;BME280;31265;49.680;8.608;2023-02-26T03:20:55;100371.50;;;-2.39;100.00
45541;BME280;31265;49.680;8.608;2023-02-26T03:23:32;100364.47;;;-2.46;100.00
45541;BME280;31265;49.680;8.608;2023-02-26T03:26:09;100368.81;;;-2.19;100.00
45541;BME280;31265;49.680;8.608;2023-02-26T03:28:45;100368.53;;;-2.21;100.00
45541;BME280;31265;49.680;8.608;2023-02-26T03:31:19;100356.25;;;-2.16;100.00
45541;BME280;31265;49.680;8.608;2023-02-26T03:33:56;100366.50;;;-2.26;100.00
45541;BME280;31265;49.680;8.608;2023-02-26T03:36:30;100362.09;;;-2.23;100.00
45541;BME280;31265;49.680;8.608;2023-02-26T03:39:24;100355.34;;;-2.28;100.00
45541;BME280;31265;49.680;8.608;2023-02-26T03:41:58;100369.53;;;-2.39;100.00
45541;BME280;31265;49.680;8.608;2023-02-26T03:44:39;100376.41;;;-2.23;100.00
45541;BME280;31265;49.680;8.608;2023-02-26T03:47:12;100379.94;;;-2.37;100.00
45541;BME280;31265;49.680;8.608;2023-02-26T03:49:48;100382.38;;;-2.39;100.00
45541;BME280;31265;49.680;8.608;2023-02-26T03:52:19;100385.63;;;-2.50;100.00
45541;BME280;31265;49.680;8.608;2023-02-26T03:55:18;100383.78;;;-2.44;100.00
45541;BME280;31265;49.680;8.608;2023-02-26T03:58:14;100387.50;;;-2.41;100.00
45541;BME280;31265;49.680;8.608;2023-02-26T04:01:05;100397.53;;;-2.18;100.00
45541;BME280;31265;49.680;8.608;2023-02-26T04:03:38;100395.44;;;-2.23;100.00
45541;BME280;31265;49.680;8.608;2023-02-26T04:06:10;100401.06;;;-2.11;100.00
45541;BME280;31265;49.680;8.608;2023-02-26T04:08:40;100412.41;;;-2.13;100.00
45541;BME280;31265;49.680;8.608;2023-02-26T04:11:11;100416.31;;;-1.99;100.00
45541;BME280;31265;49.680;8.608;2023-02-26T04:13:44;100408.72;;;-1.95;100.00
45541;BME280;31265;49.680;8.608;2023-02-26T04:16:13;100419.22;;;-1.88;100.00
45541;BME280;31265;49.680;8.608;2023-02-26T04:18:41;100409.69;;;-1.78;100.00
45541;BME280;31265;49.680;8.608;2023-02-26T04:21:11;100417.31;;;-1.82;100.00
45541;BME280;31265;49.680;8.608;2023-02-26T04:23:40;100417.97;;;-1.87;100.00
45541;BME280;31265;49.680;8.608;2023-02-26T04:26:09;100420.63;;;-1.92;100.00
45541;BME280;31265;49.680;8.608;2023-02-26T04:28:40;100431.28;;;-1.89;100.00
45541;BME280;31265;49.680;8.608;2023-02-26T04:31:09;100438.63;;;-1.95;100.00
45541;BME280;31265;49.680;8.608;2023-02-26T04:33:38;100421.16;;;-1.88;100.00
45541;BME280;31265;49.680;8.608;2023-02-26T04:36:08;100423.13;;;-1.89;100.00
45541;BME280;31265;49.680;8.608;2023-02-26T04:38:38;100430.31;;;-1.71;100.00
45541;BME280;31265;49.680;8.608;2023-02-26T04:41:06;100436.38;;;-1.61;100.00
45541;BME280;31265;49.680;8.608;2023-02-26T04:43:35;100434.13;;;-1.63;100.00
45541;BME280;31265;49.680;8.608;2023-02-26T04:46:17;100442.25;;;-1.48;100.00
45541;BME280;31265;49.680;8.608;2023-02-26T04:48:46;100447.75;;;-1.63;100.00
45541;BME280;31265;49.680;8.608;2023-02-26T04:51:14;100443.72;;;-1.67;100.00
45541;BME280;31265;49.680;8.608;2023-02-26T04:53:46;100446.91;;;-1.69;100.00
45541;BME280;31265;49.680;8.608;2023-02-26T04:56:15;100456.38;;;-1.64;100.00
45541;BME280;31265;49.680;8.608;2023-02-26T04:58:44;100454.56;;;-1.53;100.00
45541;BME280;31265;49.680;8.608;2023-02-26T05:01:17;100455.91;;;-1.63;100.00
45541;BME280;31265;49.680;8.608;2023-02-26T05:03:47;100470.38;;;-1.71;100.00
45541;BME280;31265;49.680;8.608;2023-02-26T05:06:15;100475.25;;;-1.76;100.00
45541;BME280;31265;49.680;8.608;2023-02-26T05:08:45;100477.31;;;-1.70;100.00
45541;BME280;31265;49.680;8.608;2023-02-26T05:11:13;100477.59;;;-1.68;100.00
45541;BME280;31265;49.680;8.608;2023-02-26T05:13:42;100479.63;;;-1.63;100.00
45541;BME280;31265;49.680;8.608;2023-02-26T05:16:12;100482.09;;;-1.65;100.00
45541;BME280;31265;49.680;8.608;2023-02-26T05:18:40;100483.22;;;-1.72;100.00
45541;BME280;31265;49.680;8.608;2023-02-26T05:21:09;100487.22;;;-1.88;100.00
45541;BME280;31265;49.680;8.608;2023-02-26T05:23:37;100489.47;;;-2.01;100.00
45541;BME280;31265;49.680;8.608;2023-02-26T05:26:07;100498.19;;;-2.12;100.00
45541;BME280;31265;49.680;8.608;2023-02-26T05:28:36;100487.63;;;-2.25;100.00
45541;BME280;31265;49.680;8.608;2023-02-26T05:31:04;100495.28;;;-2.08;100.00
45541;BME280;31265;49.680;8.608;2023-02-26T05:33:34;100501.66;;;-2.11;100.00
45541;BME280;31265;49.680;8.608;2023-02-26T05:36:02;100507.19;;;-2.21;100.00
45541;BME280;31265;49.680;8.608;2023-02-26T05:38:33;100504.84;;;-2.28;100.00
45541;BME280;31265;49.680;8.608;2023-02-26T05:41:01;100516.75;;;-2.25;100.00
45541;BME280;31265;49.680;8.608;2023-02-26T05:43:31;100513.66;;;-2.33;100.00
45541;BME280;31265;49.680;8.608;2023-02-26T05:46:00;100513.28;;;-2.41;100.00
45541;BME280;31265;49.680;8.608;2023-02-26T05:48:28;100525.00;;;-2.34;100.00
45541;BME280;31265;49.680;8.608;2023-02-26T05:50:57;100524.53;;;-2.33;100.00
45541;BME280;31265;49.680;8.608;2023-02-26T05:53:25;100520.03;;;-2.06;100.00
45541;BME280;31265;49.680;8.608;2023-02-26T05:55:53;100522.75;;;-2.06;100.00
45541;BME280;31265;49.680;8.608;2023-02-26T05:58:21;100526.88;;;-2.11;100.00
45541;BME280;31265;49.680;8.608;2023-02-26T06:00:53;100532.03;;;-2.13;100.00
45541;BME280;31265;49.680;8.608;2023-02-26T06:03:21;100537.22;;;-2.00;100.00
45541;BME280;31265;49.680;8.608;2023-02-26T06:05:49;100535.22;;;-2.00;100.00
45541;BME280;31265;49.680;8.608;2023-02-26T06:08:17;100545.91;;;-1.96;100.00
45541;BME280;31265;49.680;8.608;2023-02-26T06:10:46;100543.00;;;-1.78;100.00
45541;BME280;31265;49.680;8.608;2023-02-26T06:13:14;100540.56;;;-1.90;100.00
45541;BME280;31265;49.680;8.608;2023-02-26T06:15:42;100558.47;;;-1.84;100.00
45541;BME280;31265;49.680;8.608;2023-02-26T06:18:12;100558.19;;;-1.71;100.00
45541;BME280;31265;49.680;8.608;2023-02-26T06:20:40;100557.72;;;-1.84;100.00
45541;BME280;31265;49.680;8.608;2023-02-26T06:23:08;100561.47;;;-1.82;100.00
45541;BME280;31265;49.680;8.608;2023-02-26T06:25:37;100575.47;;;-1.89;100.00
45541;BME280;31265;49.680;8.608;2023-02-26T06:28:06;100580.31;;;-1.78;100.00
45541;BME280;31265;49.680;8.608;2023-02-26T06:30:35;100585.13;;;-1.88;100.00
45541;BME280;31265;49.680;8.608;2023-02-26T06:33:05;100584.72;;;-1.96;100.00
45541;BME280;31265;49.680;8.608;2023-02-26T06:35:35;100587.75;;;-1.93;100.00
45541;BME280;31265;49.680;8.608;2023-02-26T06:38:03;100589.06;;;-1.89;100.00
45541;BME280;31265;49.680;8.608;2023-02-26T06:40:31;100586.78;;;-1.90;100.00
45541;BME280;31265;49.680;8.608;2023-02-26T06:42:59;100599.00;;;-2.01;100.00
45541;BME280;31265;49.680;8.608;2023-02-26T06:45:28;100596.38;;;-1.95;100.00
45541;BME280;31265;49.680;8.608;2023-02-26T06:47:56;100607.63;;;-1.87;100.00
45541;BME280;31265;49.680;8.608;2023-02-26T06:50:25;100615.50;;;-1.89;100.00
45541;BME280;31265;49.680;8.608;2023-02-26T06:52:55;100620.75;;;-1.86;100.00
45541;BME280;31265;49.680;8.608;2023-02-26T06:55:24;100635.75;;;-1.76;100.00
45541;BME280;31265;49.680;8.608;2023-02-26T06:57:53;100632.78;;;-1.63;100.00
45541;BME280;31265;49.680;8.608;2023-02-26T07:00:23;100637.28;;;-1.60;100.00
45541;BME280;31265;49.680;8.608;2023-02-26T07:02:52;100633.44;;;-1.53;100.00
45541;BME280;31265;49.680;8.608;2023-02-26T07:05:20;100637.94;;;-1.50;100.00
45541;BME280;31265;49.680;8.608;2023-02-26T07:07:49;100638.00;;;-1.30;100.00
45541;BME280;31265;49.680;8.608;2023-02-26T07:10:21;100649.91;;;-1.12;100.00
45541;BME280;31265;49.680;8.608;2023-02-26T07:12:51;100652.19;;;-0.90;100.00
45541;BME280;31265;49.680;8.608;2023-02-26T07:15:19;100640.94;;;-0.98;100.00
45541;BME280;31265;49.680;8.608;2023-02-26T07:17:47;100645.78;;;-0.87;100.00
45541;BME280;31265;49.680;8.608;2023-02-26T07:20:16;100654.25;;;-0.85;100.00
45541;BME280;31265;49.680;8.608;2023-02-26T07:22:44;100649.09;;;-0.62;100.00
45541;BME280;31265;49.680;8.608;2023-02-26T07:25:13;100654.75;;;-0.46;100.00
45541;BME280;31265;49.680;8.608;2023-02-26T07:27:43;100663.75;;;-0.39;100.00
45541;BME280;31265;49.680;8.608;2023-02-26T07:30:12;100668.94;;;-0.41;100.00
45541;BME280;31265;49.680;8.608;2023-02-26T07:32:41;100671.38;;;-0.23;100.00
45541;BME280;31265;49.680;8.608;2023-02-26T07:35:10;100679.22;;;-0.31;100.00
45541;BME280;31265;49.680;8.608;2023-02-26T07:37:40;100685.69;;;-0.28;100.00
45541;BME280;31265;49.680;8.608;2023-02-26T07:40:09;100681.88;;;-0.36;100.00
45541;BME280;31265;49.680;8.608;2023-02-26T07:42:37;100690.13;;;-0.31;100.00
45541;BME280;31265;49.680;8.608;2023-02-26T07:45:08;100694.91;;;-0.26;100.00
45541;BME280;31265;49.680;8.608;2023-02-26T07:47:37;100703.38;;;-0.44;100.00
45541;BME280;31265;49.680;8.608;2023-02-26T07:50:06;100701.03;;;-0.31;100.00
45541;BME280;31265;49.680;8.608;2023-02-26T07:52:35;100706.38;;;-0.42;100.00
45541;BME280;31265;49.680;8.608;2023-02-26T07:55:04;100701.31;;;-0.29;100.00
45541;BME280;31265;49.680;8.608;2023-02-26T07:57:32;100705.06;;;-0.06;100.00
45541;BME280;31265;49.680;8.608;2023-02-26T08:00:00;100710.31;;;-0.02;100.00
45541;BME280;31265;49.680;8.608;2023-02-26T08:02:39;100715.69;;;-0.08;100.00
45541;BME280;31265;49.680;8.608;2023-02-26T08:05:08;100718.28;;;0.02;100.00
45541;BME280;31265;49.680;8.608;2023-02-26T08:07:37;100732.06;;;0.13;100.00
45541;BME280;31265;49.680;8.608;2023-02-26T08:10:06;100723.38;;;0.14;100.00
45541;BME280;31265;49.680;8.608;2023-02-26T08:12:34;100723.28;;;0.29;100.00
45541;BME280;31265;49.680;8.608;2023-02-26T08:15:05;100734.38;;;0.20;100.00
45541;BME280;31265;49.680;8.608;2023-02-26T08:17:34;100733.56;;;0.14;100.00
45541;BME280;31265;49.680;8.608;2023-02-26T08:20:05;100724.56;;;0.34;100.00
45541;BME280;31265;49.680;8.608;2023-02-26T08:22:34;100723.97;;;0.45;100.00
45541;BME280;31265;49.680;8.608;2023-02-26T08:25:02;100735.06;;;0.41;100.00
45541;BME280;31265;49.680;8.608;2023-02-26T08:27:31;100730.91;;;0.46;100.00
45541;BME280;31265;49.680;8.608;2023-02-26T08:29:59;100739.28;;;0.42;100.00
45541;BME280;31265;49.680;8.608;2023-02-26T08:32:28;100735.72;;;0.30;100.00
45541;BME280;31265;49.680;8.608;2023-02-26T08:34:56;100737.63;;;0.24;100.00
45541;BME280;31265;49.680;8.608;2023-02-26T08:37:26;100741.03;;;0.19;100.00
45541;BME280;31265;49.680;8.608;2023-02-26T08:39:54;100742.47;;;0.35;100.00
45541;BME280;31265;49.680;8.608;2023-02-26T08:42:23;100737.22;;;0.57;100.00
45541;BME280;31265;49.680;8.608;2023-02-26T08:44:51;100751.34;;;0.82;100.00
45541;BME280;31265;49.680;8.608;2023-02-26T08:47:20;100745.88;;;0.82;100.00
45541;BME280;31265;49.680;8.608;2023-02-26T08:49:56;100741.88;;;0.51;100.00
45541;BME280;31265;49.680;8.608;2023-02-26T08:52:27;100750.34;;;0.79;100.00
45541;BME280;31265;49.680;8.608;2023-02-26T08:54:57;100760.81;;;0.86;100.00
45541;BME280;31265;49.680;8.608;2023-02-26T08:57:25;100768.69;;;1.05;100.00
45541;BME280;31265;49.680;8.608;2023-02-26T08:59:54;100766.41;;;1.03;100.00
45541;BME280;31265;49.680;8.608;2023-02-26T09:02:22;100767.69;;;1.08;100.00
45541;BME280;31265;49.680;8.608;2023-02-26T09:04:50;100769.28;;;1.20;100.00
45541;BME280;31265;49.680;8.608;2023-02-26T09:07:19;100783.47;;;1.19;100.00
45541;BME280;31265;49.680;8.608;2023-02-26T09:09:49;100781.03;;;0.95;100.00
45541;BME280;31265;49.680;8.608;2023-02-26T09:12:17;100775.28;;;1.24;100.00
45541;BME280;31265;49.680;8.608;2023-02-26T09:14:45;100790.59;;;1.48;100.00
45541;BME280;31265;49.680;8.608;2023-02-26T09:17:18;100784.34;;;1.42;100.00
45541;BME280;31265;49.680;8.608;2023-02-26T09:19:48;100776.47;;;1.18;100.00
45541;BME280;31265;49.680;8.608;2023-02-26T09:22:17;100794.16;;;1.22;100.00
45541;BME280;31265;49.680;8.608;2023-02-26T09:24:46;100797.22;;;1.36;100.00
45541;BME280;31265;49.680;8.608;2023-02-26T09:27:17;100810.22;;;1.84;100.00
45541;BME280;31265;49.680;8.608;2023-02-26T09:29:46;100794.19;;;1.65;100.00
45541;BME280;31265;49.680;8.608;2023-02-26T09:32:14;100797.75;;;1.77;100.00
45541;BME280;31265;49.680;8.608;2023-02-26T09:34:43;100806.31;;;1.96;100.00
45541;BME280;31265;49.680;8.608;2023-02-26T09:37:11;100811.81;;;2.02;100.00
45541;BME280;31265;49.680;8.608;2023-02-26T09:39:40;100812.09;;;2.09;100.00
45541;BME280;31265;49.680;8.608;2023-02-26T09:42:18;100816.63;;;2.18;100.00
45541;BME280;31265;49.680;8.608;2023-02-26T09:44:51;100818.34;;;2.15;100.00
45541;BME280;31265;49.680;8.608;2023-02-26T09:47:28;100820.97;;;2.58;100.00
45541;BME280;31265;49.680;8.608;2023-02-26T09:50:13;100818.25;;;2.58;100.00
45541;BME280;31265;49.680;8.608;2023-02-26T09:52:46;100819.31;;;3.12;100.00
45541;BME280;31265;49.680;8.608;2023-02-26T09:55:24;100828.00;;;2.76;100.00
45541;BME280;31265;49.680;8.608;2023-02-26T09:57:58;100814.44;;;2.39;100.00
45541;BME280;31265;49.680;8.608;2023-02-26T10:00:33;100810.50;;;2.46;100.00
45541;BME280;31265;49.680;8.608;2023-02-26T10:03:15;100821.03;;;2.70;100.00
45541;BME280;31265;49.680;8.608;2023-02-26T10:06:09;100821.72;;;2.53;100.00
45541;BME280;31265;49.680;8.608;2023-02-26T10:08:48;100826.97;;;2.63;100.00
45541;BME280;31265;49.680;8.608;2023-02-26T10:11:26;100835.63;;;2.44;100.00
45541;BME280;31265;49.680;8.608;2023-02-26T10:14:02;100831.38;;;2.38;100.00
45541;BME280;31265;49.680;8.608;2023-02-26T10:16:37;100843.38;;;2.57;100.00
45541;BME280;31265;49.680;8.608;2023-02-26T10:19:09;100850.06;;;2.39;100.00
45541;BME280;31265;49.680;8.608;2023-02-26T10:21:44;100850.38;;;2.52;100.00
45541;BME280;31265;49.680;8.608;2023-02-26T10:24:18;100848.44;;;2.75;100.00
45541;BME280;31265;49.680;8.608;2023-02-26T10:26:54;100854.88;;;2.67;100.00
45541;BME280;31265;49.680;8.608;2023-02-26T10:29:30;100860.44;;;2.24;100.00
45541;BME280;31265;49.680;8.608;2023-02-26T10:32:14;100850.75;;;2.28;100.00
45541;BME280;31265;49.680;8.608;2023-02-26T10:34:50;100854.63;;;2.65;100.00
45541;BME280;31265;49.680;8.608;2023-02-26T10:37:30;100861.88;;;2.79;100.00
45541;BME280;31265;49.680;8.608;2023-02-26T10:40:04;100871.13;;;2.98;100.00
45541;BME280;31265;49.680;8.608;2023-02-26T10:42:40;100878.09;;;2.77;100.00
45541;BME280;31265;49.680;8.608;2023-02-26T10:45:33;100869.09;;;2.76;100.00
45541;BME280;31265;49.680;8.608;2023-02-26T10:48:13;100872.56;;;2.60;100.00
45541;BME280;31265;49.680;8.608;2023-02-26T10:50:48;100869.09;;;2.65;100.00
45541;BME280;31265;49.680;8.608;2023-02-26T10:53:17;100879.09;;;2.91;100.00
45541;BME280;31265;49.680;8.608;2023-02-26T10:55:58;100877.84;;;2.75;99.88
45541;BME280;31265;49.680;8.608;2023-02-26T10:58:32;100869.78;;;2.54;100.00
45541;BME280;31265;49.680;8.608;2023-02-26T11:01:06;100861.34;;;2.64;100.00
45541;BME280;31265;49.680;8.608;2023-02-26T11:03:41;100878.38;;;2.90;100.00
45541;BME280;31265;49.680;8.608;2023-02-26T11:06:16;100878.38;;;2.96;98.09
45541;BME280;31265;49.680;8.608;2023-02-26T11:08:48;100871.91;;;3.16;98.49
45541;BME280;31265;49.680;8.608;2023-02-26T11:11:47;100868.69;;;3.12;100.00
45541;BME280;31265;49.680;8.608;2023-02-26T11:14:18;100874.94;;;3.52;100.00
45541;BME280;31265;49.680;8.608;2023-02-26T11:16:52;100875.91;;;3.65;92.08
45541;BME280;31265;49.680;8.608;2023-02-26T11:19:28;100875.66;;;3.86;96.33
45541;BME280;31265;49.680;8.608;2023-02-26T11:21:59;100879.13;;;4.03;94.90
45541;BME280;31265;49.680;8.608;2023-02-26T11:24:33;100880.88;;;3.78;89.10
45541;BME280;31265;49.680;8.608;2023-02-26T11:27:04;100880.16;;;3.83;87.18
45541;BME280;31265;49.680;8.608;2023-02-26T11:29:38;100894.56;;;4.12;86.07
45541;BME280;31265;49.680;8.608;2023-02-26T11:32:15;100887.50;;;4.34;82.59
45541;BME280;31265;49.680;8.608;2023-02-26T11:34:46;100885.78;;;4.30;80.49
45541;BME280;31265;49.680;8.608;2023-02-26T11:37:17;100888.38;;;4.64;81.08
45541;BME280;31265;49.680;8.608;2023-02-26T11:39:49;100894.47;;;4.46;79.59
45541;BME280;31265;49.680;8.608;2023-02-26T11:42:20;100888.75;;;4.32;77.67
45541;BME280;31265;49.680;8.608;2023-02-26T11:44:49;100900.31;;;4.03;79.15
45541;BME280;31265;49.680;8.608;2023-02-26T11:47:22;100895.38;;;3.73;78.81
45541;BME280;31265;49.680;8.608;2023-02-26T11:49:53;100892.63;;;3.96;79.28
45541;BME280;31265;49.680;8.608;2023-02-26T11:52:28;100887.34;;;4.03;81.06
45541;BME280;31265;49.680;8.608;2023-02-26T11:55:01;100887.38;;;3.92;77.92
45541;BME280;31265;49.680;8.608;2023-02-26T11:57:31;100878.41;;;3.75;76.13
45541;BME280;31265;49.680;8.608;2023-02-26T12:00:16;100875.44;;;3.50;77.96
45541;BME280;31265;49.680;8.608;2023-02-26T12:02:48;100877.16;;;3.64;78.63
45541;BME280;31265;49.680;8.608;2023-02-26T12:05:17;100877.16;;;3.81;77.52
45541;BME280;31265;49.680;8.608;2023-02-26T12:07:46;100877.13;;;3.98;78.20
45541;BME280;31265;49.680;8.608;2023-02-26T12:10:21;100882.63;;;3.76;76.23
45541;BME280;31265;49.680;8.608;2023-02-26T12:13:04;100881.38;;;3.82;76.41
45541;BME280;31265;49.680;8.608;2023-02-26T12:15:43;100882.16;;;3.55;82.60
45541;BME280;31265;49.680;8.608;2023-02-26T12:18:39;100880.91;;;3.67;76.93
45541;BME280;31265;49.680;8.608;2023-02-26T12:21:23;100877.41;;;3.72;79.09
45541;BME280;31265;49.680;8.608;2023-02-26T12:24:14;100875.59;;;4.03;75.14
45541;BME280;31265;49.680;8.608;2023-02-26T12:26:54;100886.84;;;4.05;77.76
45541;BME280;31265;49.680;8.608;2023-02-26T12:29:49;100876.91;;;3.79;76.78
45541;BME280;31265;49.680;8.608;2023-02-26T12:32:31;100872.41;;;3.82;76.62
45541;BME280;31265;49.680;8.608;2023-02-26T12:35:30;100870.84;;;4.15;76.44
45541;BME280;31265;49.680;8.608;2023-02-26T12:38:09;100882.50;;;4.43;76.34
45541;BME280;31265;49.680;8.608;2023-02-26T12:40:54;100884.00;;;4.39;74.86
45541;BME280;31265;49.680;8.608;2023-02-26T12:43:37;100876.03;;;4.29;73.94
45541;BME280;31265;49.680;8.608;2023-02-26T12:46:18;100878.06;;;4.23;72.04
45541;BME280;31265;49.680;8.608;2023-02-26T12:49:05;100891.06;;;4.23;73.52
45541;BME280;31265;49.680;8.608;2023-02-26T12:51:48;100884.38;;;3.90;73.14
45541;BME280;31265;49.680;8.608;2023-02-26T12:54:37;100889.09;;;4.01;74.94
45541;BME280;31265;49.680;8.608;2023-02-26T12:57:36;100891.56;;;4.10;72.56
45541;BME280;31265;49.680;8.608;2023-02-26T13:00:51;100895.59;;;3.92;73.61
45541;BME280;31265;49.680;8.608;2023-02-26T13:03:34;100898.34;;;3.92;73.33
45541;BME280;31265;49.680;8.608;2023-02-26T13:06:46;100899.63;;;3.74;73.85
45541;BME280;31265;49.680;8.608;2023-02-26T13:09:29;100896.34;;;3.98;73.45
45541;BME280;31265;49.680;8.608;2023-02-26T13:12:10;100885.88;;;3.91;75.81
45541;BME280;31265;49.680;8.608;2023-02-26T13:14:52;100890.84;;;3.93;75.26
45541;BME280;31265;49.680;8.608;2023-02-26T13:17:27;100893.34;;;4.02;74.37
45541;BME280;31265;49.680;8.608;2023-02-26T13:20:01;100888.09;;;4.04;75.10